Time;durP1;ratioP1;P1;durP2;ratioP2;P2;SDS_P1;SDS_P2;PMS_P1;PMS_P2;Temp;Humidity;BMP_temperature;BMP_pressure;BME280_temperature;BME280_humidity;BME280_pressure;Samples;Min_cycle;Max_cycle;Signal;HPM_P1;HPM_P2
2022/01/18 00:02:27;;;;;;;;;64.00;51.00;;;;;;;;5062079;28;11495;-79
2022/01/18 00:04:54;;;;;;;;;65.67;52.67;;;;;;;;5061479;28;11539;-78
2022/01/18 00:07:21;;;;;;;;;56.33;47.67;;;;;;;;5062434;28;8868;-79
2022/01/18 00:09:49;;;;;;;;;54.00;45.00;;;;;;;;5061210;28;11671;-79
2022/01/18 00:12:41;;;;;;;;;52.33;45.67;;;;;;;;5063105;28;11657;-80
2022/01/18 00:15:31;;;;;;;;;59.67;48.00;;;;;;;;5062362;28;11559;-80
2022/01/18 00:18:13;;;;;;;;;52.33;47.33;;;;;;;;5065010;28;11595;-80
2022/01/18 00:23:27;;;;;;;;;47.00;41.00;;;;;;;;5060529;28;11547;-80
2022/01/18 00:25:57;;;;;;;;;62.50;47.50;;;;;;;;5062102;28;11717;-80
2022/01/18 00:28:26;;;;;;;;;27.75;26.00;;;;;;;;5047059;28;12295;-80
2022/01/18 00:33:50;;;;;;;;;47.50;41.25;;;;;;;;5059822;28;11573;-79
2022/01/18 00:36:35;;;;;;;;;44.50;39.75;;;;;;;;5062168;28;11565;-80
2022/01/18 00:39:02;;;;;;;;;49.50;41.00;;;;;;;;5065899;28;11558;-81
2022/01/18 00:41:30;;;;;;;;;42.00;39.75;;;;;;;;5066210;28;11553;-80
2022/01/18 00:43:58;;;;;;;;;37.50;34.00;;;;;;;;5065223;28;11644;-79
2022/01/18 00:46:27;;;;;;;;;41.00;36.25;;;;;;;;5065829;28;11748;-79
2022/01/18 00:48:55;;;;;;;;;41.00;38.25;;;;;;;;5057572;28;11585;-80
2022/01/18 00:51:23;;;;;;;;;57.25;42.25;;;;;;;;5065965;28;11659;-80
2022/01/18 00:53:51;;;;;;;;;48.00;43.50;;;;;;;;5065625;28;11553;-79
2022/01/18 00:56:22;;;;;;;;;48.25;42.25;;;;;;;;5065795;28;11665;-80
2022/01/18 00:58:51;;;;;;;;;43.75;37.50;;;;;;;;5069635;28;11580;-79
2022/01/18 01:01:19;;;;;;;;;49.50;43.75;;;;;;;;5064581;28;11523;-79
2022/01/18 01:03:50;;;;;;;;;54.00;42.25;;;;;;;;5066570;28;11738;-79
2022/01/18 01:06:17;;;;;;;;;49.00;44.25;;;;;;;;5064398;28;11700;-79
2022/01/18 01:08:45;;;;;;;;;37.50;36.25;;;;;;;;5048774;28;11670;-79
2022/01/18 01:11:13;;;;;;;;;44.25;38.00;;;;;;;;5064080;28;11555;-78
2022/01/18 01:13:45;;;;;;;;;45.75;37.25;;;;;;;;5065271;28;11586;-78
2022/01/18 01:19:14;;;;;;;;;44.25;38.00;;;;;;;;5063269;28;11662;-78
2022/01/18 01:35:42;;;;;;;;;36.75;35.25;;;;;;;;5046223;28;12444;-78
2022/01/18 01:43:49;;;;;;;;;28.25;28.00;;;;;;;;5048855;28;11527;-78
2022/01/18 01:46:18;;;;;;;;;30.25;28.25;;;;;;;;5061083;28;11544;-79
2022/01/18 01:48:52;;;;;;;;;42.50;35.50;;;;;;;;5065012;28;11543;-79
2022/01/18 01:51:28;;;;;;;;;31.00;28.25;;;;;;;;5048795;28;11550;-79
2022/01/18 01:53:56;;;;;;;;;33.25;27.50;;;;;;;;5063834;28;11692;-80
2022/01/18 01:56:23;;;;;;;;;29.50;25.75;;;;;;;;5065158;28;12335;-79
2022/01/18 01:58:51;;;;;;;;;31.25;28.25;;;;;;;;5048338;28;11561;-80
2022/01/18 02:01:18;;;;;;;;;3.00;1.25;;;;;;;;5064475;28;12337;-78
2022/01/18 02:03:46;;;;;;;;;30.75;30.75;;;;;;;;5065185;28;11502;-78
2022/01/18 02:06:13;;;;;;;;;26.75;26.75;;;;;;;;5064203;28;11558;-78
2022/01/18 02:08:42;;;;;;;;;35.00;32.25;;;;;;;;5065280;28;11525;-78
2022/01/18 02:11:10;;;;;;;;;30.25;28.00;;;;;;;;5045728;28;11568;-78
2022/01/18 02:13:37;;;;;;;;;40.75;26.75;;;;;;;;5065430;28;11619;-79
2022/01/18 02:16:18;;;;;;;;;30.75;29.00;;;;;;;;5064539;28;11776;-79
2022/01/18 02:21:46;;;;;;;;;31.75;29.25;;;;;;;;5064598;28;11517;-79
2022/01/18 02:24:14;;;;;;;;;31.75;26.75;;;;;;;;5064042;28;11547;-78
2022/01/18 02:26:42;;;;;;;;;32.00;26.25;;;;;;;;5064506;28;11564;-78
2022/01/18 02:29:11;;;;;;;;;31.25;26.25;;;;;;;;5064137;28;11561;-79
2022/01/18 02:31:39;;;;;;;;;26.50;24.25;;;;;;;;5063511;28;11528;-78
2022/01/18 02:34:08;;;;;;;;;26.75;25.00;;;;;;;;5064788;28;11618;-78
2022/01/18 02:36:38;;;;;;;;;32.00;27.25;;;;;;;;5060472;28;11536;-77
2022/01/18 02:39:06;;;;;;;;;12.00;12.00;;;;;;;;5064270;28;12458;-78
2022/01/18 02:41:34;;;;;;;;;25.25;22.75;;;;;;;;5072919;28;11524;-79
2022/01/18 02:44:03;;;;;;;;;24.50;23.25;;;;;;;;5064198;28;11635;-78
2022/01/18 02:46:31;;;;;;;;;34.00;25.00;;;;;;;;5062843;28;11568;-79
2022/01/18 02:48:59;;;;;;;;;26.50;24.50;;;;;;;;5045812;28;12343;-78
2022/01/18 02:51:26;;;;;;;;;28.00;25.75;;;;;;;;5049298;28;11568;-79
2022/01/18 02:54:00;;;;;;;;;27.75;21.00;;;;;;;;5063643;28;11553;-79
2022/01/18 02:56:28;;;;;;;;;25.50;18.25;;;;;;;;5063767;28;11554;-79
2022/01/18 02:59:04;;;;;;;;;29.00;27.00;;;;;;;;5066758;28;11680;-79
2022/01/18 03:04:17;;;;;;;;;21.75;19.25;;;;;;;;5063078;28;12290;-79
2022/01/18 03:06:44;;;;;;;;;25.75;25.75;;;;;;;;5063271;28;11681;-79
2022/01/18 03:09:13;;;;;;;;;31.33;26.00;;;;;;;;5062483;28;11651;-79
2022/01/18 03:11:42;;;;;;;;;25.50;22.25;;;;;;;;5062396;28;11607;-79
2022/01/18 03:14:10;;;;;;;;;21.75;18.50;;;;;;;;5063045;28;11654;-79
2022/01/18 03:16:37;;;;;;;;;25.00;20.67;;;;;;;;5062503;28;11531;-80
2022/01/18 03:19:05;;;;;;;;;25.33;22.67;;;;;;;;5064381;28;11680;-78
2022/01/18 03:21:33;;;;;;;;;23.25;23.25;;;;;;;;5062526;28;11564;-80
2022/01/18 03:24:13;;;;;;;;;24.25;20.50;;;;;;;;5063497;28;11672;-77
2022/01/18 03:29:27;;;;;;;;;22.75;18.50;;;;;;;;5054140;28;12392;-77
2022/01/18 03:31:54;;;;;;;;;24.67;22.67;;;;;;;;5062505;28;11490;-79
2022/01/18 03:34:22;;;;;;;;;19.75;19.75;;;;;;;;5066749;28;11554;-79
2022/01/18 03:36:49;;;;;;;;;25.67;23.00;;;;;;;;5062886;28;11728;-78
2022/01/18 03:39:17;;;;;;;;;25.00;23.00;;;;;;;;5061631;28;12337;-78
2022/01/18 03:41:52;;;;;;;;;29.33;24.33;;;;;;;;5069909;28;11524;-78
2022/01/18 03:44:20;;;;;;;;;23.33;21.33;;;;;;;;5045416;28;11681;-78
2022/01/18 03:46:47;;;;;;;;;28.67;24.33;;;;;;;;5061767;28;12416;-77
2022/01/18 03:49:15;;;;;;;;;27.33;22.00;;;;;;;;5061601;28;11685;-79
2022/01/18 03:51:42;;;;;;;;;22.33;18.67;;;;;;;;5061332;28;11535;-80
2022/01/18 03:54:10;;;;;;;;;20.67;17.33;;;;;;;;5063334;28;11582;-80
2022/01/18 03:56:37;;;;;;;;;36.33;30.33;;;;;;;;5059271;28;11637;-78
2022/01/18 03:59:06;;;;;;;;;29.33;28.00;;;;;;;;5056731;28;11687;-79
2022/01/18 04:01:34;;;;;;;;;38.67;31.67;;;;;;;;5060120;28;8889;-79
2022/01/18 04:04:01;;;;;;;;;32.00;27.00;;;;;;;;5065469;28;8988;-79
2022/01/18 04:06:29;;;;;;;;;26.33;19.67;;;;;;;;5067464;28;9587;-78
2022/01/18 04:08:56;;;;;;;;;32.67;23.33;;;;;;;;5047756;28;11740;-79
2022/01/18 04:11:24;;;;;;;;;36.33;25.33;;;;;;;;5067823;28;11595;-79
2022/01/18 04:13:51;;;;;;;;;40.33;29.67;;;;;;;;5047930;28;11560;-78
2022/01/18 04:16:20;;;;;;;;;28.00;26.00;;;;;;;;5057425;28;11592;-78
2022/01/18 04:18:54;;;;;;;;;26.67;26.67;;;;;;;;5066450;28;11685;-77
2022/01/18 04:26:56;;;;;;;;;31.00;26.00;;;;;;;;5066234;28;11536;-78
2022/01/18 04:29:24;;;;;;;;;28.33;28.33;;;;;;;;5066902;28;11550;-77
2022/01/18 04:31:53;;;;;;;;;33.00;28.00;;;;;;;;5065256;28;11891;-77
2022/01/18 04:34:21;;;;;;;;;39.33;34.33;;;;;;;;5066826;28;11531;-78
2022/01/18 04:36:49;;;;;;;;;39.33;31.00;;;;;;;;5065938;28;11551;-78
2022/01/18 04:39:17;;;;;;;;;40.67;35.33;;;;;;;;5065097;28;11622;-78
2022/01/18 04:41:46;;;;;;;;;36.33;35.00;;;;;;;;5066615;28;8990;-78
2022/01/18 04:49:52;;;;;;;;;31.00;29.00;;;;;;;;5061345;28;8833;-79
2022/01/18 04:52:20;;;;;;;;;30.33;28.00;;;;;;;;5064666;28;11679;-78
2022/01/18 04:54:57;;;;;;;;;27.33;27.33;;;;;;;;5065773;28;12317;-79
2022/01/18 05:00:11;;;;;;;;;38.67;33.00;;;;;;;;5051043;28;11585;-78
2022/01/18 05:02:40;;;;;;;;;61.33;46.00;;;;;;;;5064263;28;11550;-78
2022/01/18 05:05:09;;;;;;;;;31.33;24.33;;;;;;;;5065387;28;8857;-78
2022/01/18 05:07:38;;;;;;;;;49.33;34.33;;;;;;;;5065368;28;12325;-76
2022/01/18 05:10:06;;;;;;;;;34.33;30.00;;;;;;;;5066158;28;11547;-76
2022/01/18 05:12:43;;;;;;;;;42.00;36.33;;;;;;;;5069193;28;11691;-77
2022/01/18 05:15:33;;;;;;;;;53.00;43.00;;;;;;;;5063976;28;11580;-76
2022/01/18 05:18:58;;;;;;;;;28.67;26.00;;;;;;;;5066424;28;8848;-76
2022/01/18 05:21:20;;;;;;;;;39.33;35.00;;;;;;;;5061094;28;9595;-79
2022/01/18 05:23:46;;;;;;;;;47.67;34.67;;;;;;;;5056107;28;9739;-77
2022/01/18 05:26:14;;;;;;;;;43.00;39.00;;;;;;;;5064650;28;9619;-75
2022/01/18 05:28:41;;;;;;;;;39.00;37.00;;;;;;;;5027286;28;8859;-75
2022/01/18 05:31:09;;;;;;;;;39.33;36.67;;;;;;;;5063968;28;9664;-76
2022/01/18 05:33:38;;;;;;;;;45.67;40.00;;;;;;;;5065392;28;8875;-77
2022/01/18 05:36:06;;;;;;;;;44.00;37.67;;;;;;;;5062354;28;8872;-77
2022/01/18 05:38:35;;;;;;;;;35.00;30.33;;;;;;;;5046805;28;8894;-77
2022/01/18 05:41:03;;;;;;;;;33.67;30.33;;;;;;;;5046589;28;8938;-76
2022/01/18 05:43:30;;;;;;;;;31.33;28.33;;;;;;;;5047258;28;8879;-77
2022/01/18 05:45:58;;;;;;;;;41.67;33.00;;;;;;;;5063738;28;10064;-76
2022/01/18 05:48:25;;;;;;;;;40.00;33.67;;;;;;;;5064610;28;8935;-77
2022/01/18 05:50:59;;;;;;;;;37.33;32.33;;;;;;;;5063311;28;9640;-77
2022/01/18 05:53:26;;;;;;;;;50.67;42.67;;;;;;;;5064016;28;9677;-77
2022/01/18 05:55:54;;;;;;;;;40.00;30.67;;;;;;;;5064854;28;8840;-77
2022/01/18 05:58:21;;;;;;;;;32.33;32.33;;;;;;;;5062507;28;9036;-76
2022/01/18 06:00:52;;;;;;;;;42.67;31.67;;;;;;;;5062264;28;11614;-77
2022/01/18 06:03:27;;;;;;;;;33.00;33.00;;;;;;;;5061995;28;8871;-77
2022/01/18 06:08:43;;;;;;;;;34.33;34.00;;;;;;;;5063104;28;8829;-77
2022/01/18 06:11:11;;;;;;;;;40.67;35.67;;;;;;;;5042283;28;8878;-77
2022/01/18 06:13:38;;;;;;;;;35.33;33.67;;;;;;;;5064971;28;8897;-77
2022/01/18 06:16:06;;;;;;;;;32.67;31.33;;;;;;;;5064546;28;8873;-77
2022/01/18 06:18:34;;;;;;;;;41.00;30.67;;;;;;;;5044673;28;11678;-77
2022/01/18 06:21:03;;;;;;;;;35.00;32.33;;;;;;;;5062552;28;11764;-76
2022/01/18 06:23:30;;;;;;;;;32.67;19.67;;;;;;;;5064130;28;11550;-80
2022/01/18 06:25:58;;;;;;;;;34.67;31.00;;;;;;;;5062903;28;11564;-78
2022/01/18 06:28:32;;;;;;;;;40.33;36.00;;;;;;;;5060877;28;11561;-86
2022/01/18 06:30:59;;;;;;;;;29.67;27.67;;;;;;;;5061190;28;11619;-84
2022/01/18 06:33:26;;;;;;;;;38.67;36.00;;;;;;;;5064337;28;11531;-87
2022/01/18 06:35:54;;;;;;;;;32.33;28.33;;;;;;;;5046880;28;11583;-84
2022/01/18 06:38:22;;;;;;;;;32.33;30.67;;;;;;;;5063220;28;11558;-85
2022/01/18 06:40:50;;;;;;;;;40.67;35.00;;;;;;;;5061718;28;11589;-79
2022/01/18 06:43:17;;;;;;;;;42.67;33.00;;;;;;;;5062326;28;11592;-79
2022/01/18 06:45:44;;;;;;;;;33.33;26.67;;;;;;;;5060061;28;11631;-75
2022/01/18 06:48:12;;;;;;;;;36.00;31.33;;;;;;;;5063868;28;11619;-77
2022/01/18 06:50:39;;;;;;;;;39.00;36.00;;;;;;;;5062469;28;11550;-79
2022/01/18 06:53:07;;;;;;;;;33.33;29.00;;;;;;;;5063802;28;11544;-79
2022/01/18 06:55:36;;;;;;;;;33.00;33.00;;;;;;;;5044311;28;11551;-79
2022/01/18 06:58:03;;;;;;;;;43.00;32.33;;;;;;;;5063524;28;11555;-78
2022/01/18 07:00:31;;;;;;;;;44.67;40.67;;;;;;;;5054916;28;11501;-78
2022/01/18 07:02:58;;;;;;;;;44.00;39.33;;;;;;;;5063284;28;8868;-77
2022/01/18 07:05:25;;;;;;;;;30.67;29.67;;;;;;;;5063616;28;11547;-76
2022/01/18 07:07:52;;;;;;;;;40.00;35.00;;;;;;;;5059396;28;11534;-81
2022/01/18 07:10:20;;;;;;;;;36.00;30.67;;;;;;;;5063018;28;11585;-78
2022/01/18 07:12:48;;;;;;;;;41.00;32.67;;;;;;;;5061564;28;8863;-78
2022/01/18 07:15:16;;;;;;;;;41.67;37.00;;;;;;;;5063028;28;11620;-75
2022/01/18 07:17:48;;;;;;;;;35.00;32.67;;;;;;;;5025932;28;11599;-76
2022/01/18 07:20:16;;;;;;;;;36.00;34.00;;;;;;;;5062095;28;11581;-77
2022/01/18 07:22:43;;;;;;;;;43.00;38.33;;;;;;;;5062901;28;11549;-76
2022/01/18 07:25:12;;;;;;;;;27.33;27.33;;;;;;;;5042143;28;11583;-76
2022/01/18 07:27:40;;;;;;;;;46.67;39.67;;;;;;;;5063005;28;11554;-76
2022/01/18 07:30:10;;;;;;;;;35.67;32.67;;;;;;;;5061373;28;11549;-76
2022/01/18 07:32:38;;;;;;;;;43.00;33.00;;;;;;;;5062519;28;11543;-78
2022/01/18 07:35:07;;;;;;;;;40.67;29.33;;;;;;;;5042656;28;11571;-76
2022/01/18 07:37:35;;;;;;;;;40.00;34.00;;;;;;;;5061468;28;12561;-76
2022/01/18 07:40:03;;;;;;;;;46.00;37.67;;;;;;;;5062618;28;11575;-76
2022/01/18 07:42:31;;;;;;;;;37.67;30.67;;;;;;;;5063018;28;11563;-76
2022/01/18 07:44:58;;;;;;;;;46.33;38.67;;;;;;;;5063546;28;11604;-76
2022/01/18 07:47:27;;;;;;;;;33.00;30.00;;;;;;;;5061237;28;11557;-76
2022/01/18 07:49:54;;;;;;;;;28.50;23.50;;;;;;;;5058358;28;12462;-76
2022/01/18 07:52:21;;;;;;;;;45.00;37.67;;;;;;;;5060759;28;11688;-76
2022/01/18 07:54:48;;;;;;;;;47.33;42.00;;;;;;;;5050316;28;11582;-74
2022/01/18 07:57:16;;;;;;;;;44.00;41.00;;;;;;;;5056941;28;8852;-74
2022/01/18 07:59:43;;;;;;;;;56.00;44.33;;;;;;;;5062313;28;8848;-74
2022/01/18 08:02:10;;;;;;;;;52.33;41.00;;;;;;;;5061727;28;11556;-74
2022/01/18 08:04:39;;;;;;;;;52.33;44.33;;;;;;;;5061797;28;8878;-73
2022/01/18 08:07:07;;;;;;;;;69.67;54.33;;;;;;;;5062716;28;8861;-74
2022/01/18 08:09:34;;;;;;;;;65.33;53.33;;;;;;;;5061250;28;8920;-74
2022/01/18 08:12:01;;;;;;;;;64.00;49.67;;;;;;;;5063693;28;8872;-75
2022/01/18 08:14:31;;;;;;;;;74.00;60.33;;;;;;;;5055638;28;8848;-74
2022/01/18 08:17:04;;;;;;;;;66.67;52.33;;;;;;;;5062247;28;8868;-75
2022/01/18 08:19:33;;;;;;;;;69.00;56.33;;;;;;;;5062181;28;8942;-74
2022/01/18 08:22:02;;;;;;;;;59.33;48.67;;;;;;;;5043495;28;8899;-76
2022/01/18 08:24:29;;;;;;;;;68.33;54.33;;;;;;;;5062007;28;8829;-76
2022/01/18 08:26:57;;;;;;;;;62.00;49.33;;;;;;;;5060316;28;8860;-73
2022/01/18 08:29:24;;;;;;;;;61.67;47.67;;;;;;;;5062915;28;9619;-73
2022/01/18 08:31:52;;;;;;;;;62.33;49.00;;;;;;;;5060948;28;10286;-75
2022/01/18 08:34:21;;;;;;;;;64.00;50.67;;;;;;;;5062467;28;8825;-73
2022/01/18 08:36:48;;;;;;;;;67.00;54.33;;;;;;;;5062602;28;8956;-76
2022/01/18 08:39:17;;;;;;;;;62.33;47.67;;;;;;;;5062979;28;8860;-76
2022/01/18 08:41:45;;;;;;;;;65.00;53.33;;;;;;;;5060308;28;8820;-77
2022/01/18 08:44:12;;;;;;;;;66.33;54.33;;;;;;;;5061792;28;9669;-78
2022/01/18 08:46:41;;;;;;;;;62.33;51.67;;;;;;;;5063228;28;9004;-78
2022/01/18 08:49:08;;;;;;;;;78.33;59.00;;;;;;;;5063191;28;8892;-77
2022/01/18 08:51:36;;;;;;;;;87.67;68.67;;;;;;;;5066704;28;8892;-77
2022/01/18 08:54:05;;;;;;;;;96.67;73.00;;;;;;;;5065131;28;8848;-78
2022/01/18 08:56:33;;;;;;;;;76.67;58.33;;;;;;;;5064719;28;8882;-78
2022/01/18 08:59:01;;;;;;;;;82.67;66.00;;;;;;;;5050241;28;8887;-77
2022/01/18 09:01:28;;;;;;;;;64.67;50.00;;;;;;;;5063615;28;8812;-77
2022/01/18 09:03:56;;;;;;;;;104.00;87.00;;;;;;;;5067531;28;12412;-76
2022/01/18 09:06:24;;;;;;;;;76.00;61.33;;;;;;;;5071626;28;8860;-74
2022/01/18 09:08:56;;;;;;;;;62.00;51.67;;;;;;;;5065768;28;8871;-75
2022/01/18 09:11:26;;;;;;;;;89.67;66.33;;;;;;;;5046267;28;8894;-79
2022/01/18 09:13:55;;;;;;;;;70.00;54.00;;;;;;;;5065715;28;8990;-77
2022/01/18 09:16:23;;;;;;;;;64.00;55.33;;;;;;;;5064385;28;8829;-76
2022/01/18 09:18:51;;;;;;;;;68.00;54.33;;;;;;;;5064158;28;11591;-76
2022/01/18 09:21:19;;;;;;;;;76.67;61.00;;;;;;;;5048550;28;11597;-76
2022/01/18 09:23:46;;;;;;;;;88.00;65.67;;;;;;;;5061167;28;9708;-78
2022/01/18 09:26:14;;;;;;;;;71.67;58.67;;;;;;;;5064937;28;8860;-78
2022/01/18 09:28:41;;;;;;;;;71.67;59.33;;;;;;;;5063418;28;12231;-77
2022/01/18 09:31:12;;;;;;;;;76.33;61.33;;;;;;;;5063670;28;11530;-75
2022/01/18 09:33:39;;;;;;;;;103.33;92.33;;;;;;;;5063849;28;11708;-77
2022/01/18 09:36:07;;;;;;;;;73.33;62.00;;;;;;;;5065680;28;8876;-75
2022/01/18 09:38:35;;;;;;;;;68.50;55.75;;;;;;;;5067217;28;11586;-77
2022/01/18 09:41:10;;;;;;;;;86.33;67.00;;;;;;;;5065592;28;11675;-76
2022/01/18 09:43:38;;;;;;;;;66.00;54.00;;;;;;;;5067122;28;8856;-79
2022/01/18 09:46:07;;;;;;;;;66.25;53.00;;;;;;;;5065312;28;11561;-76
2022/01/18 09:48:37;;;;;;;;;69.00;54.25;;;;;;;;5067035;28;11646;-78
2022/01/18 09:51:05;;;;;;;;;68.50;54.25;;;;;;;;5064773;28;11754;-77
2022/01/18 09:53:32;;;;;;;;;64.50;51.00;;;;;;;;5067197;28;11670;-77
2022/01/18 09:56:00;;;;;;;;;68.75;55.75;;;;;;;;5076826;28;11552;-77
2022/01/18 09:58:28;;;;;;;;;69.50;54.75;;;;;;;;5060572;28;11589;-78
2022/01/18 10:00:58;;;;;;;;;66.00;51.50;;;;;;;;5066122;28;11497;-77
2022/01/18 10:03:33;;;;;;;;;58.50;48.25;;;;;;;;5065286;28;11596;-76
2022/01/18 10:06:06;;;;;;;;;60.50;47.25;;;;;;;;5063386;28;11543;-76
2022/01/18 10:08:34;;;;;;;;;77.00;60.00;;;;;;;;5060957;28;12376;-81
2022/01/18 10:11:03;;;;;;;;;72.25;58.00;;;;;;;;5064649;28;11577;-73
2022/01/18 10:13:32;;;;;;;;;66.50;51.75;;;;;;;;5064378;28;11586;-79
2022/01/18 10:16:05;;;;;;;;;70.00;54.00;;;;;;;;5062305;28;11583;-78
2022/01/18 10:18:42;;;;;;;;;62.50;52.00;;;;;;;;5055224;28;11587;-79
2022/01/18 10:21:11;;;;;;;;;67.00;54.75;;;;;;;;5063656;28;11548;-79
2022/01/18 10:23:39;;;;;;;;;67.50;53.00;;;;;;;;5065386;28;11601;-79
2022/01/18 10:26:17;;;;;;;;;66.00;53.50;;;;;;;;5062849;28;11661;-79
2022/01/18 10:28:45;;;;;;;;;62.75;53.00;;;;;;;;5045739;28;12332;-80
2022/01/18 10:31:27;;;;;;;;;72.50;57.25;;;;;;;;5062278;28;11529;-79
2022/01/18 10:34:21;;;;;;;;;64.75;51.50;;;;;;;;5060318;28;11648;-83
2022/01/18 10:36:59;;;;;;;;;48.25;41.00;;;;;;;;5047209;28;11579;-82
2022/01/18 10:39:28;;;;;;;;;63.50;52.75;;;;;;;;5064263;28;11561;-82
2022/01/18 10:41:57;;;;;;;;;59.50;46.50;;;;;;;;5061650;28;11646;-82
2022/01/18 10:44:24;;;;;;;;;71.50;54.75;;;;;;;;5064853;28;11535;-82
2022/01/18 10:46:54;;;;;;;;;61.25;48.00;;;;;;;;5044682;28;11589;-80
2022/01/18 10:49:39;;;;;;;;;62.50;52.50;;;;;;;;5063983;28;11601;-82
2022/01/18 10:52:10;;;;;;;;;63.75;50.50;;;;;;;;5059839;28;12484;-82
2022/01/18 10:54:40;;;;;;;;;60.25;47.75;;;;;;;;5058387;28;11573;-75
2022/01/18 10:57:09;;;;;;;;;65.00;51.00;;;;;;;;5045138;28;11650;-78
2022/01/18 10:59:38;;;;;;;;;73.00;55.00;;;;;;;;5062559;28;11696;-77
2022/01/18 11:02:14;;;;;;;;;65.75;52.25;;;;;;;;5062998;28;11591;-77
2022/01/18 11:04:47;;;;;;;;;61.75;49.50;;;;;;;;5062900;28;11664;-73
2022/01/18 11:07:17;;;;;;;;;64.75;49.50;;;;;;;;5063048;28;11551;-76
2022/01/18 11:09:46;;;;;;;;;50.75;44.00;;;;;;;;5063053;28;11550;-76
2022/01/18 11:12:13;;;;;;;;;57.75;47.50;;;;;;;;5062885;28;11583;-76
2022/01/18 11:14:45;;;;;;;;;51.75;43.25;;;;;;;;5059857;28;11604;-77
2022/01/18 11:17:20;;;;;;;;;49.75;42.00;;;;;;;;5061257;28;11609;-78
2022/01/18 11:19:49;;;;;;;;;57.25;46.00;;;;;;;;5064544;28;11525;-77
2022/01/18 11:22:18;;;;;;;;;48.75;39.00;;;;;;;;5062250;28;11600;-77
2022/01/18 11:24:48;;;;;;;;;42.25;39.00;;;;;;;;5063043;28;11587;-76
2022/01/18 11:27:18;;;;;;;;;44.25;40.75;;;;;;;;5027363;28;11499;-76
2022/01/18 11:29:48;;;;;;;;;36.50;35.75;;;;;;;;5069747;28;11579;-78
2022/01/18 11:32:17;;;;;;;;;71.00;56.25;;;;;;;;5065340;28;11429;-76
2022/01/18 11:34:54;;;;;;;;;36.25;34.50;;;;;;;;5062539;28;11657;-76
2022/01/18 11:37:29;;;;;;;;;41.00;37.25;;;;;;;;5061608;28;11626;-77
2022/01/18 11:40:01;;;;;;;;;55.00;44.00;;;;;;;;5060200;28;11146;-77
2022/01/18 11:42:40;;;;;;;;;36.50;33.25;;;;;;;;5057898;28;11497;-76
2022/01/18 11:45:28;;;;;;;;;37.25;35.25;;;;;;;;5060064;28;11086;-75
2022/01/18 11:48:10;;;;;;;;;45.00;39.25;;;;;;;;5054845;28;11837;-76
2022/01/18 11:50:42;;;;;;;;;44.25;39.50;;;;;;;;5060477;28;11162;-74
2022/01/18 11:53:37;;;;;;;;;55.00;43.00;;;;;;;;5061535;28;11143;-77
2022/01/18 11:56:05;;;;;;;;;58.00;46.75;;;;;;;;5066116;28;11242;-75
2022/01/18 11:58:32;;;;;;;;;30.25;29.75;;;;;;;;5062096;28;11494;-76
2022/01/18 12:01:01;;;;;;;;;43.25;37.75;;;;;;;;5058637;28;11593;-77
2022/01/18 12:03:30;;;;;;;;;41.25;36.00;;;;;;;;5061354;28;10935;-76
2022/01/18 12:05:59;;;;;;;;;36.75;36.75;;;;;;;;5058294;28;11882;-75
2022/01/18 12:08:33;;;;;;;;;46.00;36.50;;;;;;;;5060931;28;10918;-76
2022/01/18 12:11:02;;;;;;;;;37.00;36.00;;;;;;;;5058058;28;10931;-75
2022/01/18 12:13:48;;;;;;;;;32.75;30.00;;;;;;;;5060378;28;10685;-75
2022/01/18 12:16:28;;;;;;;;;34.75;34.75;;;;;;;;5059763;28;11520;-78
2022/01/18 12:19:01;;;;;;;;;35.00;35.00;;;;;;;;5061765;28;10756;-79
2022/01/18 12:21:31;;;;;;;;;35.00;32.75;;;;;;;;5064335;28;11542;-76
2022/01/18 12:24:15;;;;;;;;;42.00;36.00;;;;;;;;5061290;28;10703;-79
2022/01/18 12:26:46;;;;;;;;;33.50;31.25;;;;;;;;5064343;28;10904;-75
2022/01/18 12:29:23;;;;;;;;;32.75;30.50;;;;;;;;5064410;28;10359;-75
2022/01/18 12:34:48;;;;;;;;;26.00;24.00;;;;;;;;5055215;28;10463;-77
2022/01/18 12:37:42;;;;;;;;;33.00;30.75;;;;;;;;5064484;28;11027;-75
2022/01/18 12:40:28;;;;;;;;;23.75;23.00;;;;;;;;5060018;28;10367;-75
2022/01/18 12:45:50;;;;;;;;;29.50;23.75;;;;;;;;5063283;28;10340;-79
2022/01/18 12:48:18;;;;;;;;;37.25;30.75;;;;;;;;5065178;28;10879;-78
2022/01/18 12:50:49;;;;;;;;;39.50;37.00;;;;;;;;5047463;28;10770;-77
2022/01/18 12:53:18;;;;;;;;;28.75;26.50;;;;;;;;5051601;28;10283;-78
2022/01/18 12:55:54;;;;;;;;;32.25;31.00;;;;;;;;5064851;28;9843;-78
2022/01/18 12:58:25;;;;;;;;;31.25;27.50;;;;;;;;5065582;28;10070;-78
2022/01/18 13:00:54;;;;;;;;;32.50;26.00;;;;;;;;5065541;28;9753;-78
2022/01/18 13:03:23;;;;;;;;;33.50;28.50;;;;;;;;5067494;28;9643;-77
2022/01/18 13:05:53;;;;;;;;;24.25;19.00;;;;;;;;5063814;28;9754;-77
2022/01/18 13:08:22;;;;;;;;;25.50;25.00;;;;;;;;5065863;28;9659;-74
2022/01/18 13:10:52;;;;;;;;;19.50;19.25;;;;;;;;5043408;28;9538;-75
2022/01/18 13:13:22;;;;;;;;;16.00;16.00;;;;;;;;5066046;28;9411;-76
2022/01/18 13:27:02;;;;;;;;;15.00;13.00;;;;;;;;5040552;28;9345;-77
2022/01/18 13:29:30;;;;;;;;;14.67;13.00;;;;;;;;5064141;28;9327;-80
2022/01/18 13:32:02;;;;;;;;;10.00;8.00;;;;;;;;5063188;28;9363;-79
2022/01/18 13:34:33;;;;;;;;;8.67;8.67;;;;;;;;5046496;28;9114;-77
2022/01/18 13:37:04;;;;;;;;;8.00;6.00;;;;;;;;5064950;28;9346;-79
2022/01/18 13:39:36;;;;;;;;;9.00;9.00;;;;;;;;5063647;28;9176;-77
2022/01/18 13:42:06;;;;;;;;;10.50;10.50;;;;;;;;5063013;28;9460;-76
2022/01/18 13:44:33;;;;;;;;;13.75;12.00;;;;;;;;5065894;28;9468;-77
2022/01/18 13:47:15;;;;;;;;;9.00;9.00;;;;;;;;5065019;28;9485;-77
2022/01/18 13:49:43;;;;;;;;;5.33;5.33;;;;;;;;5065948;28;9560;-76
2022/01/18 13:52:12;;;;;;;;;9.75;9.75;;;;;;;;5065584;28;9326;-76
2022/01/18 13:54:48;;;;;;;;;14.75;10.00;;;;;;;;5071368;28;9400;-76
2022/01/18 13:57:18;;;;;;;;;8.33;8.33;;;;;;;;5065791;28;9491;-75
2022/01/18 13:59:46;;;;;;;;;10.50;10.50;;;;;;;;5065180;28;9557;-75
2022/01/18 14:02:16;;;;;;;;;10.75;8.50;;;;;;;;5064317;28;9646;-77
2022/01/18 14:04:45;;;;;;;;;8.50;8.50;;;;;;;;5063944;28;9541;-77
2022/01/18 14:07:13;;;;;;;;;7.75;7.75;;;;;;;;5045918;28;9459;-79
2022/01/18 14:09:40;;;;;;;;;8.75;8.75;;;;;;;;5063785;28;9487;-78
2022/01/18 14:12:17;;;;;;;;;21.00;20.75;;;;;;;;5043911;28;10605;-78
2022/01/18 14:14:45;;;;;;;;;14.50;12.00;;;;;;;;5062192;28;10038;-78
2022/01/18 14:17:16;;;;;;;;;12.50;9.75;;;;;;;;5060956;28;9725;-79
2022/01/18 14:19:45;;;;;;;;;9.50;9.50;;;;;;;;5063518;28;9575;-78
2022/01/18 14:22:18;;;;;;;;;8.00;8.00;;;;;;;;5043342;28;9650;-78
2022/01/18 14:24:48;;;;;;;;;12.75;9.75;;;;;;;;5062992;28;9646;-77
2022/01/18 14:27:22;;;;;;;;;13.67;10.00;;;;;;;;5063458;28;9409;-78
2022/01/18 14:29:55;;;;;;;;;9.25;9.25;;;;;;;;5028713;28;9434;-78
2022/01/18 14:32:29;;;;;;;;;14.00;12.50;;;;;;;;5057213;28;9805;-78
2022/01/18 14:34:59;;;;;;;;;7.33;7.33;;;;;;;;5059683;28;9561;-77
2022/01/18 14:37:38;;;;;;;;;4.67;4.67;;;;;;;;5059803;28;9435;-78
2022/01/18 14:40:12;;;;;;;;;9.00;6.00;;;;;;;;5060227;28;9176;-78
2022/01/18 14:42:45;;;;;;;;;13.25;10.75;;;;;;;;5060499;28;9269;-77
2022/01/18 14:45:32;;;;;;;;;8.67;8.67;;;;;;;;5064101;28;9706;-77
2022/01/18 14:48:00;;;;;;;;;8.67;8.67;;;;;;;;5061624;28;9492;-77
2022/01/18 14:50:28;;;;;;;;;10.33;8.00;;;;;;;;5062697;28;9451;-78
2022/01/18 14:52:57;;;;;;;;;7.33;4.00;;;;;;;;5062916;28;9507;-78
2022/01/18 14:55:29;;;;;;;;;8.33;7.00;;;;;;;;5062977;28;10096;-77
2022/01/18 14:57:59;;;;;;;;;7.00;7.00;;;;;;;;5061399;28;9564;-77
2022/01/18 15:00:27;;;;;;;;;17.50;15.00;;;;;;;;5040820;28;9441;-75
2022/01/18 15:02:55;;;;;;;;;38.75;34.75;;;;;;;;5065254;28;9691;-77
2022/01/18 15:05:24;;;;;;;;;13.25;11.00;;;;;;;;5062005;28;10094;-76
2022/01/18 15:07:51;;;;;;;;;10.00;8.33;;;;;;;;5044465;28;9603;-77
2022/01/18 15:10:22;;;;;;;;;8.33;8.00;;;;;;;;5058745;28;9345;-76
2022/01/18 15:12:51;;;;;;;;;9.33;8.00;;;;;;;;5062080;28;9419;-76
2022/01/18 15:15:22;;;;;;;;;4.67;4.00;;;;;;;;5062612;28;9235;-76
2022/01/18 15:17:51;;;;;;;;;8.00;4.00;;;;;;;;5062823;28;9263;-77
2022/01/18 15:20:21;;;;;;;;;6.00;6.00;;;;;;;;5059138;28;9591;-77
2022/01/18 15:22:51;;;;;;;;;4.00;4.00;;;;;;;;5059974;28;9435;-76
2022/01/18 15:25:21;;;;;;;;;5.00;5.00;;;;;;;;5043593;28;10233;-76
2022/01/18 15:27:49;;;;;;;;;13.00;12.75;;;;;;;;5061944;28;9820;-75
2022/01/18 15:30:19;;;;;;;;;6.00;4.00;;;;;;;;5058965;28;10052;-77
2022/01/18 15:32:47;;;;;;;;;9.00;9.00;;;;;;;;5061393;28;10374;-77
2022/01/18 15:35:15;;;;;;;;;3.00;3.00;;;;;;;;5061525;28;9797;-77
2022/01/18 15:37:43;;;;;;;;;7.25;7.00;;;;;;;;5062140;28;9714;-78
2022/01/18 15:40:12;;;;;;;;;6.50;6.50;;;;;;;;5057574;28;9881;-77
2022/01/18 15:42:40;;;;;;;;;10.25;9.25;;;;;;;;5043028;28;9829;-77
2022/01/18 15:45:09;;;;;;;;;11.75;7.25;;;;;;;;5061409;28;9948;-78
2022/01/18 15:47:38;;;;;;;;;5.00;5.00;;;;;;;;5059368;28;10202;-77
2022/01/18 15:50:07;;;;;;;;;6.00;6.00;;;;;;;;5060942;28;9939;-81
2022/01/18 15:52:34;;;;;;;;;3.25;3.25;;;;;;;;5061353;28;10048;-80